Share

Auburn, AL

11:56 AM CDT on April 23, 2014 (GMT -0500)
KALAUBUR4 Elev 646 ft | 32.58 °N, 85.45 °W | Change Station

Current weather conditions updated 2 minutes ago

Clear
Clear
78.4 °F
Feels Like 80 °F
N
1.0
Wind Variable Wind from SE
Sunrise 6:03 AM
Sunset 7:17 PM
Moon Waning Crescent

Today is forecast to be Warmer than yesterday.

Pressure 30.00 in
Visibility 10.0 miles
Clouds Clear
Heat Index 80 °F
Dew Point 60 °F
Humidity 54%
Rainfall 0.00 in
Snow Depth Not available.
UV 11 out of 16
Pollen 8.20 out of 12
Air Quality Not available.
Flu Activity Sporadic
METAR KAUO 231635Z AUTO 34006KT 10SM CLR 23/12 A3000 RMK AO1

More Conditions Fewer Conditions

Pressure 30.00 in
Visibility 10.0 miles
Clouds Clear
Heat Index 80 °F
Dew Point 60 °F
Humidity 54%
Rainfall 0.00 in
Snow Depth Not available.
UV 11 out of 16
Pollen 8.20 out of 12
Air Quality Not available.
Flu Activity Sporadic
METAR KAUO 231635Z AUTO 34006KT 10SM CLR 23/12 A3000 RMK AO1

More Conditions Fewer Conditions

10-Day Weather Forecast

Almanac

Astronomy

Apr. 23, 2014 Rise Set
Actual Time 6:03 AM CDT 7:17 PM CDT
Civil Twilight 5:37 AM CDT 7:43 PM CDT
Nautical Twilight 5:07 AM CDT 8:14 PM CDT
Astronomical Twilight 4:35 AM CDT 8:45 PM CDT
Moon 2:14 AM CDT 1:44 PM CDT
Length of Visible Light 14h 05m
Length of Day
13h 14m
Tomorrow will be 1m 48s longer.
Waning Crescent, 34% of the Moon is Illuminated
Today
Waning Crescent
Apr 29
New
May 6
First Quarter
May 14
Full
May 21
Last Quarter

Today's Extremes

State Highs State Lows

Community

  • Stunning Sunrise
    Stunning Sunrise
  • spring flowers
    spring flowers
  • Earth Day Spectrum Ove' Blue
    Earth Day Spectrum Ove' Blue
  • BARN B&W
    BARN B&W
  • April Sunset
    April Sunset

WunderPhotos

Upload Photos

1,704,332 photos uploaded!

WunderBlogs® & News

Nearby

Snow Depth

Station Depth Elevation
No new snow has been reported.

Coastal Water Temperatures

Place Temperature
No Stations Reporting

Earthquake Activity

City Distance Mag. Time & Date
No recent earthquake activity has been reported nearby.
Minimum magnitude displayed is 2.5.

Nearby Weather Stations

Station Location Temp. Heat Index Dew Point Humidity Wind Precip. Elev Updated Type
Auburn, AL 78.4 °F 80 °F 60 °F 54% SE  at  1.0 mph - / hr 646 ft 11:54 AM CDT Normal
RAWS TUSKEGEE AL, Auburn, AL 74 °F 77 °F 57 °F 55% North  at  4 mph 0.00 in / hr 508 ft 10:26 AM CDT MADIS
Opelika, AL - Highland Ave., Opelika, AL 76.6 °F 78 °F 52 °F 42% NE  at  1.8 mph 0.00 in / hr 856 ft 11:56 AM CDT Rapid Fire
Opelika, Opelika, AL 75.9 °F 78 °F 55 °F 49% ENE  at  8.5 mph 0.00 in / hr 785 ft 11:56 AM CDT Rapid Fire

Show More Stations Show Fewer Stations

What do you think?

We're not finished. Please let us know what you like, what you don't like, and what you are still missing.